Time,TemperatureF,DewpointF,PressureIn,WindDirection,WindDirectionDegrees,WindSpeedMPH,WindSpeedGustMPH,Humidity,HourlyPrecipIn,Conditions,Clouds,dailyrainin,SoftwareType,DateUTC
2013-05-09 00:11:00,51.4,48.0,30.10,NNE,22,0.0,-999.0,88,-99.99,,,0.00,Acu-Link.com,2013-05-09 07:11:00,
2013-05-09 00:26:00,51.6,48.2,30.10,ESE,112,0.0,-999.0,88,-99.99,,,0.00,Acu-Link.com,2013-05-09 07:26:00,
2013-05-09 00:41:00,51.6,48.5,30.11,East,90,0.0,-999.0,89,-99.99,,,0.00,Acu-Link.com,2013-05-09 07:41:00,
2013-05-09 00:57:00,51.6,48.5,30.12,North,0,0.0,-999.0,89,-99.99,,,0.00,Acu-Link.com,2013-05-09 07:57:00,
2013-05-09 01:13:00,51.6,48.5,30.11,SE,135,0.0,-999.0,89,-99.99,,,0.00,Acu-Link.com,2013-05-09 08:13:00,
2013-05-09 01:28:00,51.4,48.6,30.12,WSW,247,0.0,-999.0,90,-99.99,,,0.00,Acu-Link.com,2013-05-09 08:28:00,
2013-05-09 01:43:00,51.6,48.8,30.11,NNE,22,2.7,-999.0,90,-99.99,,,0.00,Acu-Link.com,2013-05-09 08:43:00,
2013-05-09 01:58:00,51.6,48.8,30.11,NNW,337,0.0,-999.0,90,-99.99,,,0.00,Acu-Link.com,2013-05-09 08:58:00,
2013-05-09 02:13:00,51.4,48.6,30.12,NE,45,0.0,-999.0,90,-99.99,,,0.00,Acu-Link.com,2013-05-09 09:13:00,
2013-05-09 02:28:00,51.4,48.6,30.11,WNW,292,1.7,-999.0,90,-99.99,,,0.00,Acu-Link.com,2013-05-09 09:28:00,
2013-05-09 02:44:00,51.3,48.5,30.12,NNE,22,0.0,-999.0,90,-99.99,,,0.00,Acu-Link.com,2013-05-09 09:44:00,
2013-05-09 02:59:00,51.1,48.3,30.12,NW,315,2.7,-999.0,90,-99.99,,,0.00,Acu-Link.com,2013-05-09 09:59:00,
2013-05-09 03:14:00,51.1,48.3,30.12,East,90,1.7,-999.0,90,-99.99,,,0.00,Acu-Link.com,2013-05-09 10:14:00,
2013-05-09 03:29:00,51.1,48.3,30.13,NNE,22,2.2,-999.0,90,-99.99,,,0.00,Acu-Link.com,2013-05-09 10:29:00,
2013-05-09 03:45:00,51.1,48.3,30.12,NE,45,1.7,-999.0,90,-99.99,,,0.00,Acu-Link.com,2013-05-09 10:45:00,
2013-05-09 04:00:00,51.1,48.3,30.12,NE,45,1.7,-999.0,90,-99.99,,,0.00,Acu-Link.com,2013-05-09 11:00:00,
2013-05-09 04:15:00,50.9,48.4,30.12,NE,45,1.1,-999.0,91,-99.99,,,0.00,Acu-Link.com,2013-05-09 11:15:00,
2013-05-09 04:30:00,50.7,48.2,30.13,NNE,22,0.0,-999.0,91,-99.99,,,0.00,Acu-Link.com,2013-05-09 11:30:00,
2013-05-09 04:45:00,50.5,48.0,30.12,North,0,3.2,-999.0,91,-99.99,,,0.00,Acu-Link.com,2013-05-09 11:45:00,
2013-05-09 05:01:00,50.4,48.2,30.13,NNE,22,2.2,-999.0,92,-99.99,,,0.00,Acu-Link.com,2013-05-09 12:01:00,
2013-05-09 05:16:00,50.0,47.8,30.11,NNE,22,2.7,-999.0,92,-99.99,,,0.00,Acu-Link.com,2013-05-09 12:16:00,
2013-05-09 05:31:00,50.0,47.8,30.11,NE,45,0.0,-999.0,92,-99.99,,,0.00,Acu-Link.com,2013-05-09 12:31:00,
2013-05-09 05:47:00,50.0,47.8,30.12,NE,45,3.2,-999.0,92,-99.99,,,0.00,Acu-Link.com,2013-05-09 12:47:00,
2013-05-09 06:02:00,49.8,47.6,30.12,SSE,157,0.0,-999.0,92,-99.99,,,0.00,Acu-Link.com,2013-05-09 13:02:00,
2013-05-09 06:17:00,49.8,47.6,30.12,WNW,292,0.0,-999.0,92,-99.99,,,0.00,Acu-Link.com,2013-05-09 13:17:00,
2013-05-09 06:32:00,49.8,47.9,30.13,NE,45,3.7,-999.0,93,-99.99,,,0.00,Acu-Link.com,2013-05-09 13:32:00,
2013-05-09 06:48:00,49.8,47.9,30.13,North,0,0.0,-999.0,93,-99.99,,,0.00,Acu-Link.com,2013-05-09 13:48:00,
2013-05-09 07:03:00,50.2,48.3,30.13,East,90,0.0,-999.0,93,-99.99,,,0.00,Acu-Link.com,2013-05-09 14:03:00,
2013-05-09 07:18:00,50.4,48.5,30.14,ESE,112,0.0,-999.0,93,-99.99,,,0.00,Acu-Link.com,2013-05-09 14:18:00,
2013-05-09 07:34:00,50.5,48.3,30.13,North,0,0.0,-999.0,92,-99.99,,,0.00,Acu-Link.com,2013-05-09 14:34:00,
2013-05-09 07:49:00,50.5,48.3,30.13,NNE,22,0.0,-999.0,92,-99.99,,,0.00,Acu-Link.com,2013-05-09 14:49:00,
2013-05-09 08:04:00,50.9,48.4,30.13,NNE,22,3.2,-999.0,91,-99.99,,,0.00,Acu-Link.com,2013-05-09 15:04:00,
2013-05-09 08:19:00,51.4,48.6,30.15,NNE,22,0.0,-999.0,90,-99.99,,,0.00,Acu-Link.com,2013-05-09 15:19:00,
2013-05-09 08:35:00,51.8,48.7,30.15,ESE,112,1.7,-999.0,89,-99.99,,,0.00,Acu-Link.com,2013-05-09 15:35:00,
2013-05-09 08:50:00,52.5,49.0,30.14,ENE,67,1.7,-999.0,88,-99.99,,,0.00,Acu-Link.com,2013-05-09 15:50:00,
2013-05-09 09:05:00,52.7,48.9,30.13,WNW,292,1.7,-999.0,87,-99.99,,,0.00,Acu-Link.com,2013-05-09 16:05:00,
2013-05-09 09:20:00,53.8,49.4,30.12,WSW,247,1.1,-999.0,85,-99.99,,,0.00,Acu-Link.com,2013-05-09 16:20:00,
2013-05-09 09:36:00,54.9,50.5,30.12,North,0,0.0,-999.0,85,-99.99,,,0.00,Acu-Link.com,2013-05-09 16:36:00,
2013-05-09 09:51:00,52.7,49.2,30.11,WSW,247,1.7,-999.0,88,-99.99,,,0.00,Acu-Link.com,2013-05-09 16:51:00,
2013-05-09 10:06:00,54.1,50.0,30.12,West,270,2.2,-999.0,86,-99.99,,,0.00,Acu-Link.com,2013-05-09 17:06:00,
2013-05-09 10:22:00,56.8,51.4,30.11,West,270,2.2,-999.0,82,-99.99,,,0.00,Acu-Link.com,2013-05-09 17:22:00,
2013-05-09 10:37:00,57.9,51.4,30.12,NW,315,3.2,-999.0,79,-99.99,,,0.00,Acu-Link.com,2013-05-09 17:37:00,
2013-05-09 10:52:00,58.8,52.0,30.11,WSW,247,4.7,-999.0,78,-99.99,,,0.00,Acu-Link.com,2013-05-09 17:52:00,
2013-05-09 11:07:00,61.3,53.3,30.11,West,270,2.7,-999.0,75,-99.99,,,0.00,Acu-Link.com,2013-05-09 18:07:00,
2013-05-09 11:22:00,61.0,53.4,30.10,SE,135,2.7,-999.0,76,-99.99,,,0.00,Acu-Link.com,2013-05-09 18:22:00,
2013-05-09 11:38:00,62.1,54.4,30.11,SW,225,3.2,-999.0,76,-99.99,,,0.00,Acu-Link.com,2013-05-09 18:38:00,
2013-05-09 11:53:00,63.7,54.1,30.10,SW,225,1.7,-999.0,71,-99.99,,,0.00,Acu-Link.com,2013-05-09 18:53:00,
2013-05-09 12:08:00,65.7,55.6,30.08,West,270,4.7,-999.0,70,-99.99,,,0.00,Acu-Link.com,2013-05-09 19:08:00,
2013-05-09 12:23:00,66.9,56.0,30.08,SW,225,4.2,-999.0,68,-99.99,,,0.00,Acu-Link.com,2013-05-09 19:23:00,
2013-05-09 12:38:00,68.4,56.6,30.08,WSW,247,2.7,-999.0,66,-99.99,,,0.00,Acu-Link.com,2013-05-09 19:38:00,
2013-05-09 12:53:00,71.6,57.0,30.07,West,270,2.7,-999.0,60,-99.99,,,0.00,Acu-Link.com,2013-05-09 19:53:00,
2013-05-09 13:09:00,73.0,58.3,30.06,SE,135,3.2,-999.0,60,-99.99,,,0.00,Acu-Link.com,2013-05-09 20:09:00,
2013-05-09 13:24:00,72.0,58.3,30.08,NNE,22,6.8,-999.0,62,-99.99,,,0.00,Acu-Link.com,2013-05-09 20:24:00,
2013-05-09 13:39:00,72.3,58.1,30.07,NNE,22,4.7,-999.0,61,-99.99,,,0.00,Acu-Link.com,2013-05-09 20:39:00,
2013-05-09 13:55:00,69.6,56.4,30.08,NNE,22,2.2,-999.0,63,-99.99,,,0.00,Acu-Link.com,2013-05-09 20:55:00,
2013-05-09 14:10:00,69.3,55.7,30.09,SW,225,3.7,-999.0,62,-99.99,,,0.00,Acu-Link.com,2013-05-09 21:10:00,
2013-05-09 14:25:00,69.6,56.4,30.09,West,270,4.2,-999.0,63,-99.99,,,0.00,Acu-Link.com,2013-05-09 21:25:00,
2013-05-09 14:40:00,68.4,56.2,30.07,ENE,67,5.3,-999.0,65,-99.99,,,0.00,Acu-Link.com,2013-05-09 21:40:00,
2013-05-09 14:55:00,68.5,56.7,30.06,NW,315,6.8,-999.0,66,-99.99,,,0.00,Acu-Link.com,2013-05-09 21:55:00,
2013-05-09 15:11:00,66.7,55.0,30.07,NNE,22,3.2,-999.0,66,-99.99,,,0.00,Acu-Link.com,2013-05-09 22:11:00,
2013-05-09 15:26:00,67.5,56.1,30.07,ESE,112,2.2,-999.0,67,-99.99,,,0.00,Acu-Link.com,2013-05-09 22:26:00,
2013-05-09 15:41:00,66.6,54.9,30.05,NW,315,6.8,-999.0,66,-99.99,,,0.00,Acu-Link.com,2013-05-09 22:41:00,
2013-05-09 15:56:00,68.2,55.5,30.05,WNW,292,4.7,-999.0,64,-99.99,,,0.00,Acu-Link.com,2013-05-09 22:56:00,
2013-05-09 16:11:00,67.1,54.9,30.05,North,0,4.7,-999.0,65,-99.99,,,0.00,Acu-Link.com,2013-05-09 23:11:00,
2013-05-09 16:27:00,67.6,55.4,30.03,WNW,292,3.7,-999.0,65,-99.99,,,0.00,Acu-Link.com,2013-05-09 23:27:00,
2013-05-09 16:42:00,66.7,54.6,30.04,West,270,5.3,-999.0,65,-99.99,,,0.00,Acu-Link.com,2013-05-09 23:42:00,
2013-05-09 16:57:00,66.0,54.3,30.05,SW,225,2.7,-999.0,66,-99.99,,,0.00,Acu-Link.com,2013-05-09 23:57:00,
2013-05-09 17:12:00,63.0,53.4,30.03,SW,225,4.2,-999.0,71,-99.99,,,0.00,Acu-Link.com,2013-05-10 00:12:00,
2013-05-09 17:27:00,62.2,53.4,30.04,SE,135,7.3,-999.0,73,-99.99,,,0.00,Acu-Link.com,2013-05-10 00:27:00,
2013-05-09 17:43:00,61.2,52.8,30.04,West,270,5.8,-999.0,74,-99.99,,,0.00,Acu-Link.com,2013-05-10 00:43:00,
2013-05-09 17:58:00,60.6,52.3,30.05,WSW,247,4.7,-999.0,74,-99.99,,,0.00,Acu-Link.com,2013-05-10 00:58:00,
2013-05-09 18:13:00,60.1,51.8,30.05,SW,225,6.3,-999.0,74,-99.99,,,0.00,Acu-Link.com,2013-05-10 01:13:00,
2013-05-09 18:29:00,61.5,52.4,30.04,SW,225,4.2,-999.0,72,-99.99,,,0.00,Acu-Link.com,2013-05-10 01:29:00,
2013-05-09 18:44:00,61.7,52.2,30.06,WNW,292,2.7,-999.0,71,-99.99,,,0.00,Acu-Link.com,2013-05-10 01:44:00,
2013-05-09 18:59:00,60.6,51.5,30.05,WSW,247,4.2,-999.0,72,-99.99,,,0.00,Acu-Link.com,2013-05-10 01:59:00,
2013-05-09 19:15:00,60.1,51.8,30.06,WSW,247,3.7,-999.0,74,-99.99,,,0.00,Acu-Link.com,2013-05-10 02:15:00,
2013-05-09 19:30:00,57.4,50.6,30.07,SW,225,5.3,-999.0,78,-99.99,,,0.00,Acu-Link.com,2013-05-10 02:30:00,
2013-05-09 19:45:00,56.3,50.2,30.07,WSW,247,3.2,-999.0,80,-99.99,,,0.00,Acu-Link.com,2013-05-10 02:45:00,
2013-05-09 20:00:00,54.1,49.7,30.09,NW,315,2.2,-999.0,85,-99.99,,,0.00,Acu-Link.com,2013-05-10 03:00:00,
2013-05-09 20:16:00,53.6,49.5,30.09,South,180,4.7,-999.0,86,-99.99,,,0.00,Acu-Link.com,2013-05-10 03:16:00,
2013-05-09 20:31:00,52.9,49.1,30.10,WNW,292,3.7,-999.0,87,-99.99,,,0.00,Acu-Link.com,2013-05-10 03:31:00,
2013-05-09 20:46:00,52.3,49.2,30.10,NNW,337,3.7,-999.0,89,-99.99,,,0.00,Acu-Link.com,2013-05-10 03:46:00,
2013-05-09 21:01:00,51.8,49.0,30.12,WNW,292,4.2,-999.0,90,-99.99,,,0.00,Acu-Link.com,2013-05-10 04:01:00,
2013-05-09 21:16:00,52.0,49.2,30.11,West,270,2.2,-999.0,90,-99.99,,,0.00,Acu-Link.com,2013-05-10 04:16:00,
2013-05-09 21:31:00,51.8,49.0,30.12,NNE,22,3.2,-999.0,90,-99.99,,,0.00,Acu-Link.com,2013-05-10 04:31:00,
2013-05-09 21:47:00,51.8,49.0,30.12,West,270,1.7,-999.0,90,-99.99,,,0.00,Acu-Link.com,2013-05-10 04:47:00,
2013-05-09 22:02:00,51.4,48.9,30.11,NNE,22,0.0,-999.0,91,-99.99,,,0.00,Acu-Link.com,2013-05-10 05:02:00,
2013-05-09 22:17:00,51.4,48.9,30.11,WSW,247,2.7,-999.0,91,-99.99,,,0.00,Acu-Link.com,2013-05-10 05:17:00,
2013-05-09 22:33:00,51.4,48.9,30.12,NW,315,2.2,-999.0,91,-99.99,,,0.00,Acu-Link.com,2013-05-10 05:33:00,
2013-05-09 22:48:00,51.3,48.8,30.14,North,0,0.0,-999.0,91,-99.99,,,0.00,Acu-Link.com,2013-05-10 05:48:00,
2013-05-09 23:03:00,51.3,49.1,30.14,SSW,202,3.2,-999.0,92,-99.99,,,0.00,Acu-Link.com,2013-05-10 06:03:00,
2013-05-09 23:18:00,51.1,48.9,30.12,SSW,202,0.0,-999.0,92,-99.99,,,0.00,Acu-Link.com,2013-05-10 06:18:00,
2013-05-09 23:34:00,51.1,48.9,30.13,SW,225,3.2,-999.0,92,-99.99,,,0.00,Acu-Link.com,2013-05-10 06:34:00,
2013-05-09 23:49:00,50.7,48.5,30.15,West,270,2.7,-999.0,92,-99.99,,,0.00,Acu-Link.com,2013-05-10 06:49:00,